sensor_id;sensor_type;location;lat;lon;timestamp;pressure;altitude;pressure_sealevel;temperature;humidity
73624;BME280;61921;53.226;-1.296;2023-03-11T00:00:45;99871.59;;;0.17;84.27
73624;BME280;61921;53.226;-1.296;2023-03-11T00:03:08;99872.12;;;0.33;83.84
73624;BME280;61921;53.226;-1.296;2023-03-11T00:05:34;99875.48;;;0.41;83.27
73624;BME280;61921;53.226;-1.296;2023-03-11T00:07:58;99876.95;;;0.46;82.61
73624;BME280;61921;53.226;-1.296;2023-03-11T00:10:26;99874.94;;;0.37;82.32
73624;BME280;61921;53.226;-1.296;2023-03-11T00:12:49;99879.53;;;0.42;82.67
73624;BME280;61921;53.226;-1.296;2023-03-11T00:15:14;99876.68;;;0.43;82.40
73624;BME280;61921;53.226;-1.296;2023-03-11T00:17:40;99877.87;;;0.45;82.60
73624;BME280;61921;53.226;-1.296;2023-03-11T00:20:07;99879.22;;;0.44;82.88
73624;BME280;61921;53.226;-1.296;2023-03-11T00:22:31;99877.32;;;0.43;82.79
73624;BME280;61921;53.226;-1.296;2023-03-11T00:24:57;99875.43;;;0.43;82.94
73624;BME280;61921;53.226;-1.296;2023-03-11T00:27:22;99878.19;;;0.46;83.16
73624;BME280;61921;53.226;-1.296;2023-03-11T00:29:47;99879.00;;;0.46;83.28
73624;BME280;61921;53.226;-1.296;2023-03-11T00:32:12;99877.55;;;0.46;83.27
73624;BME280;61921;53.226;-1.296;2023-03-11T00:34:38;99874.68;;;0.45;83.07
73624;BME280;61921;53.226;-1.296;2023-03-11T00:37:03;99875.38;;;0.45;82.86
73624;BME280;61921;53.226;-1.296;2023-03-11T00:39:29;99876.19;;;0.45;83.05
73624;BME280;61921;53.226;-1.296;2023-03-11T00:41:55;99876.19;;;0.42;83.10
73624;BME280;61921;53.226;-1.296;2023-03-11T00:44:20;99876.18;;;0.18;83.69
73624;BME280;61921;53.226;-1.296;2023-03-11T00:46:46;99875.73;;;-0.01;84.68
73624;BME280;61921;53.226;-1.296;2023-03-11T00:49:11;99877.79;;;-0.00;85.61
73624;BME280;61921;53.226;-1.296;2023-03-11T00:51:37;99879.20;;;0.01;85.87
73624;BME280;61921;53.226;-1.296;2023-03-11T00:54:02;99876.89;;;0.04;85.85
73624;BME280;61921;53.226;-1.296;2023-03-11T00:56:28;99876.57;;;-0.19;86.40
73624;BME280;61921;53.226;-1.296;2023-03-11T00:58:55;99878.18;;;-0.32;87.09
73624;BME280;61921;53.226;-1.296;2023-03-11T01:01:20;99879.40;;;-0.37;86.60
73624;BME280;61921;53.226;-1.296;2023-03-11T01:03:45;99878.25;;;-0.40;86.15
73624;BME280;61921;53.226;-1.296;2023-03-11T01:06:10;99878.57;;;-0.30;86.02
73624;BME280;61921;53.226;-1.296;2023-03-11T01:08:35;99878.95;;;-0.18;85.38
73624;BME280;61921;53.226;-1.296;2023-03-11T01:11:01;99882.59;;;0.01;84.71
73624;BME280;61921;53.226;-1.296;2023-03-11T01:13:27;99883.61;;;-0.01;84.92
73624;BME280;61921;53.226;-1.296;2023-03-11T01:15:51;99881.27;;;0.07;84.31
73624;BME280;61921;53.226;-1.296;2023-03-11T01:18:17;99878.03;;;0.07;83.92
73624;BME280;61921;53.226;-1.296;2023-03-11T01:20:43;99876.79;;;0.07;83.75
73624;BME280;61921;53.226;-1.296;2023-03-11T01:23:09;99874.03;;;0.04;83.97
73624;BME280;61921;53.226;-1.296;2023-03-11T01:25:34;99870.62;;;0.02;84.19
73624;BME280;61921;53.226;-1.296;2023-03-11T01:27:59;99870.46;;;0.03;84.28
73624;BME280;61921;53.226;-1.296;2023-03-11T01:30:27;99870.24;;;0.01;83.83
73624;BME280;61921;53.226;-1.296;2023-03-11T01:32:52;99873.14;;;-0.47;85.88
73624;BME280;61921;53.226;-1.296;2023-03-11T01:35:18;99871.44;;;-0.94;87.65
73624;BME280;61921;53.226;-1.296;2023-03-11T01:37:40;99870.63;;;-0.79;88.25
73624;BME280;61921;53.226;-1.296;2023-03-11T01:40:10;99867.27;;;-0.57;86.92
73624;BME280;61921;53.226;-1.296;2023-03-11T01:42:31;99870.36;;;-0.62;86.84
73624;BME280;61921;53.226;-1.296;2023-03-11T01:44:57;99872.54;;;-0.58;86.50
73624;BME280;61921;53.226;-1.296;2023-03-11T01:47:34;99873.24;;;-0.40;85.60
73624;BME280;61921;53.226;-1.296;2023-03-11T01:49:48;99869.91;;;-0.37;85.06
73624;BME280;61921;53.226;-1.296;2023-03-11T01:52:14;99873.63;;;-0.38;84.70
73624;BME280;61921;53.226;-1.296;2023-03-11T01:54:40;99871.59;;;-0.34;84.63
73624;BME280;61921;53.226;-1.296;2023-03-11T01:57:07;99871.22;;;-0.34;84.50
73624;BME280;61921;53.226;-1.296;2023-03-11T01:59:35;99867.60;;;-0.34;84.86
73624;BME280;61921;53.226;-1.296;2023-03-11T02:02:01;99864.78;;;-0.38;85.45
73624;BME280;61921;53.226;-1.296;2023-03-11T02:04:22;99862.37;;;-0.36;85.68
73624;BME280;61921;53.226;-1.296;2023-03-11T02:06:47;99861.51;;;-0.35;85.59
73624;BME280;61921;53.226;-1.296;2023-03-11T02:09:13;99860.92;;;-0.44;85.14
73624;BME280;61921;53.226;-1.296;2023-03-11T02:11:38;99861.03;;;-0.44;85.03
73624;BME280;61921;53.226;-1.296;2023-03-11T02:14:05;99860.58;;;-0.48;84.87
73624;BME280;61921;53.226;-1.296;2023-03-11T02:16:30;99858.09;;;-0.49;84.83
73624;BME280;61921;53.226;-1.296;2023-03-11T02:18:58;99851.72;;;-0.50;84.71
73624;BME280;61921;53.226;-1.296;2023-03-11T02:21:24;99847.04;;;-0.50;84.84
73624;BME280;61921;53.226;-1.296;2023-03-11T02:23:49;99840.76;;;-0.55;84.45
73624;BME280;61921;53.226;-1.296;2023-03-11T02:26:16;99837.35;;;-0.67;84.51
73624;BME280;61921;53.226;-1.296;2023-03-11T02:28:36;99833.36;;;-0.56;84.68
73624;BME280;61921;53.226;-1.296;2023-03-11T02:31:02;99837.96;;;-0.53;84.62
73624;BME280;61921;53.226;-1.296;2023-03-11T02:33:31;99840.18;;;-0.52;84.10
73624;BME280;61921;53.226;-1.296;2023-03-11T02:35:53;99838.25;;;-0.60;84.11
73624;BME280;61921;53.226;-1.296;2023-03-11T02:38:18;99835.01;;;-0.88;85.26
73624;BME280;61921;53.226;-1.296;2023-03-11T02:40:49;99840.87;;;-1.04;85.99
73624;BME280;61921;53.226;-1.296;2023-03-11T02:43:10;99839.04;;;-1.19;86.50
73624;BME280;61921;53.226;-1.296;2023-03-11T02:45:35;99839.68;;;-1.33;87.03
73624;BME280;61921;53.226;-1.296;2023-03-11T02:47:59;99842.03;;;-1.46;88.08
73624;BME280;61921;53.226;-1.296;2023-03-11T02:50:24;99846.12;;;-1.08;87.32
73624;BME280;61921;53.226;-1.296;2023-03-11T02:52:50;99850.92;;;-1.00;85.77
73624;BME280;61921;53.226;-1.296;2023-03-11T02:55:15;99845.32;;;-1.21;86.51
73624;BME280;61921;53.226;-1.296;2023-03-11T02:57:41;99844.36;;;-1.33;87.10
73624;BME280;61921;53.226;-1.296;2023-03-11T03:00:07;99843.70;;;-1.08;86.68
73624;BME280;61921;53.226;-1.296;2023-03-11T03:02:32;99844.42;;;-0.98;85.57
73624;BME280;61921;53.226;-1.296;2023-03-11T03:04:58;99842.27;;;-0.97;84.94
73624;BME280;61921;53.226;-1.296;2023-03-11T03:07:23;99843.62;;;-0.96;84.96
73624;BME280;61921;53.226;-1.296;2023-03-11T03:09:49;99846.26;;;-0.97;84.86
73624;BME280;61921;53.226;-1.296;2023-03-11T03:12:14;99850.20;;;-0.96;84.78
73624;BME280;61921;53.226;-1.296;2023-03-11T03:14:40;99849.77;;;-0.95;84.92
73624;BME280;61921;53.226;-1.296;2023-03-11T03:17:06;99840.86;;;-0.90;85.23
73624;BME280;61921;53.226;-1.296;2023-03-11T03:19:30;99835.86;;;-0.97;84.90
73624;BME280;61921;53.226;-1.296;2023-03-11T03:21:57;99829.47;;;-1.02;84.83
73624;BME280;61921;53.226;-1.296;2023-03-11T03:24:22;99829.19;;;-1.04;84.84
73624;BME280;61921;53.226;-1.296;2023-03-11T03:26:47;99832.68;;;-1.05;84.88
73624;BME280;61921;53.226;-1.296;2023-03-11T03:29:13;99834.83;;;-0.98;84.51
73624;BME280;61921;53.226;-1.296;2023-03-11T03:31:38;99840.83;;;-1.03;84.69
73624;BME280;61921;53.226;-1.296;2023-03-11T03:34:04;99839.43;;;-1.02;84.17
73624;BME280;61921;53.226;-1.296;2023-03-11T03:36:29;99842.54;;;-1.04;83.81
73624;BME280;61921;53.226;-1.296;2023-03-11T03:38:55;99845.68;;;-1.03;84.02
73624;BME280;61921;53.226;-1.296;2023-03-11T03:41:20;99846.75;;;-0.96;83.66
73624;BME280;61921;53.226;-1.296;2023-03-11T03:43:44;99845.60;;;-0.98;83.17
73624;BME280;61921;53.226;-1.296;2023-03-11T03:46:10;99845.96;;;-1.08;83.35
73624;BME280;61921;53.226;-1.296;2023-03-11T03:48:35;99845.68;;;-1.02;83.58
73624;BME280;61921;53.226;-1.296;2023-03-11T03:51:02;99846.03;;;-1.06;83.21
73624;BME280;61921;53.226;-1.296;2023-03-11T03:53:26;99844.39;;;-1.09;83.71
73624;BME280;61921;53.226;-1.296;2023-03-11T03:55:51;99845.75;;;-1.07;83.10
73624;BME280;61921;53.226;-1.296;2023-03-11T03:58:16;99846.23;;;-1.01;82.36
73624;BME280;61921;53.226;-1.296;2023-03-11T04:00:42;99848.25;;;-0.98;82.54
73624;BME280;61921;53.226;-1.296;2023-03-11T04:03:07;99848.84;;;-0.90;82.47
73624;BME280;61921;53.226;-1.296;2023-03-11T04:05:33;99845.42;;;-0.86;81.92
73624;BME280;61921;53.226;-1.296;2023-03-11T04:07:58;99847.84;;;-0.79;81.73
73624;BME280;61921;53.226;-1.296;2023-03-11T04:10:23;99851.11;;;-0.80;82.01
73624;BME280;61921;53.226;-1.296;2023-03-11T04:12:49;99854.66;;;-0.74;81.45
73624;BME280;61921;53.226;-1.296;2023-03-11T04:15:15;99855.71;;;-0.78;81.02
73624;BME280;61921;53.226;-1.296;2023-03-11T04:17:41;99853.16;;;-0.88;82.00
73624;BME280;61921;53.226;-1.296;2023-03-11T04:20:07;99851.37;;;-0.98;82.71
73624;BME280;61921;53.226;-1.296;2023-03-11T04:22:31;99854.20;;;-0.86;82.66
73624;BME280;61921;53.226;-1.296;2023-03-11T04:24:58;99855.38;;;-0.86;82.23
73624;BME280;61921;53.226;-1.296;2023-03-11T04:27:23;99856.27;;;-1.19;83.60
73624;BME280;61921;53.226;-1.296;2023-03-11T04:29:48;99860.71;;;-1.35;84.37
73624;BME280;61921;53.226;-1.296;2023-03-11T04:32:13;99862.44;;;-1.57;85.67
73624;BME280;61921;53.226;-1.296;2023-03-11T04:34:38;99867.42;;;-1.43;84.22
73624;BME280;61921;53.226;-1.296;2023-03-11T04:37:04;99871.52;;;-1.29;84.59
73624;BME280;61921;53.226;-1.296;2023-03-11T04:39:29;99872.14;;;-1.20;84.06
73624;BME280;61921;53.226;-1.296;2023-03-11T04:41:57;99871.26;;;-1.09;83.68
73624;BME280;61921;53.226;-1.296;2023-03-11T04:44:20;99874.86;;;-1.04;83.23
73624;BME280;61921;53.226;-1.296;2023-03-11T04:46:45;99874.22;;;-1.03;83.17
73624;BME280;61921;53.226;-1.296;2023-03-11T04:49:11;99879.60;;;-1.11;83.47
73624;BME280;61921;53.226;-1.296;2023-03-11T04:51:37;99886.49;;;-1.23;84.48
73624;BME280;61921;53.226;-1.296;2023-03-11T04:54:02;99892.58;;;-1.11;84.02
73624;BME280;61921;53.226;-1.296;2023-03-11T04:56:27;99896.50;;;-1.05;83.71
73624;BME280;61921;53.226;-1.296;2023-03-11T04:58:53;99894.01;;;-1.43;84.14
73624;BME280;61921;53.226;-1.296;2023-03-11T05:01:18;99892.85;;;-1.34;84.30
73624;BME280;61921;53.226;-1.296;2023-03-11T05:03:44;99887.43;;;-1.20;83.85
73624;BME280;61921;53.226;-1.296;2023-03-11T05:06:10;99887.37;;;-1.15;84.19
73624;BME280;61921;53.226;-1.296;2023-03-11T05:08:36;99888.70;;;-1.04;83.91
73624;BME280;61921;53.226;-1.296;2023-03-11T05:11:01;99886.32;;;-1.12;83.95
73624;BME280;61921;53.226;-1.296;2023-03-11T05:13:26;99887.28;;;-1.19;83.81
73624;BME280;61921;53.226;-1.296;2023-03-11T05:15:51;99883.93;;;-1.85;85.53
73624;BME280;61921;53.226;-1.296;2023-03-11T05:18:16;99885.27;;;-1.85;86.87
73624;BME280;61921;53.226;-1.296;2023-03-11T05:20:41;99888.15;;;-2.28;88.70
73624;BME280;61921;53.226;-1.296;2023-03-11T05:23:07;99889.28;;;-1.88;88.65
73624;BME280;61921;53.226;-1.296;2023-03-11T05:25:33;99891.42;;;-1.59;87.65
73624;BME280;61921;53.226;-1.296;2023-03-11T05:27:58;99891.75;;;-1.43;86.82
73624;BME280;61921;53.226;-1.296;2023-03-11T05:30:23;99895.36;;;-1.42;86.74
73624;BME280;61921;53.226;-1.296;2023-03-11T05:32:49;99895.37;;;-1.17;86.15
73624;BME280;61921;53.226;-1.296;2023-03-11T05:35:14;99895.56;;;-1.02;85.59
73624;BME280;61921;53.226;-1.296;2023-03-11T05:37:40;99895.33;;;-0.90;84.93
73624;BME280;61921;53.226;-1.296;2023-03-11T05:40:09;99894.76;;;-0.79;84.36
73624;BME280;61921;53.226;-1.296;2023-03-11T05:42:31;99896.12;;;-0.70;83.82
73624;BME280;61921;53.226;-1.296;2023-03-11T05:44:58;99899.72;;;-0.64;83.65
73624;BME280;61921;53.226;-1.296;2023-03-11T05:47:23;99900.53;;;-0.55;83.73
73624;BME280;61921;53.226;-1.296;2023-03-11T05:49:48;99907.58;;;-0.49;83.20
73624;BME280;61921;53.226;-1.296;2023-03-11T05:52:13;99910.53;;;-0.50;82.60
73624;BME280;61921;53.226;-1.296;2023-03-11T05:54:39;99915.95;;;-0.70;82.03
73624;BME280;61921;53.226;-1.296;2023-03-11T05:57:05;99917.96;;;-0.52;82.35
73624;BME280;61921;53.226;-1.296;2023-03-11T05:59:31;99913.37;;;-0.44;82.08
73624;BME280;61921;53.226;-1.296;2023-03-11T06:01:57;99913.19;;;-0.39;81.56
73624;BME280;61921;53.226;-1.296;2023-03-11T06:04:22;99919.42;;;-0.34;81.34
73624;BME280;61921;53.226;-1.296;2023-03-11T06:06:47;99922.47;;;-0.29;81.03
73624;BME280;61921;53.226;-1.296;2023-03-11T06:09:13;99932.78;;;-0.37;80.79
73624;BME280;61921;53.226;-1.296;2023-03-11T06:11:38;99940.23;;;-0.35;81.41
73624;BME280;61921;53.226;-1.296;2023-03-11T06:14:03;99937.12;;;-0.48;82.16
73624;BME280;61921;53.226;-1.296;2023-03-11T06:16:28;99935.62;;;-0.47;82.88
73624;BME280;61921;53.226;-1.296;2023-03-11T06:18:54;99935.85;;;-0.28;82.29
73624;BME280;61921;53.226;-1.296;2023-03-11T06:21:21;99939.99;;;-0.20;81.88
73624;BME280;61921;53.226;-1.296;2023-03-11T06:23:45;99937.77;;;-0.12;81.60
73624;BME280;61921;53.226;-1.296;2023-03-11T06:26:12;99934.27;;;-0.12;81.24
73624;BME280;61921;53.226;-1.296;2023-03-11T06:28:35;99934.88;;;-0.19;81.32
73624;BME280;61921;53.226;-1.296;2023-03-11T06:31:07;99930.74;;;0.06;81.25
73624;BME280;61921;53.226;-1.296;2023-03-11T06:33:27;99933.20;;;0.13;80.67
73624;BME280;61921;53.226;-1.296;2023-03-11T06:35:56;99931.76;;;0.17;80.36
73624;BME280;61921;53.226;-1.296;2023-03-11T06:38:17;99926.44;;;0.09;81.25
73624;BME280;61921;53.226;-1.296;2023-03-11T06:40:43;99920.98;;;0.21;81.23
73624;BME280;61921;53.226;-1.296;2023-03-11T06:43:08;99919.39;;;0.29;81.07
73624;BME280;61921;53.226;-1.296;2023-03-11T06:45:33;99914.02;;;0.39;81.24
73624;BME280;61921;53.226;-1.296;2023-03-11T06:47:59;99911.45;;;0.44;81.13
73624;BME280;61921;53.226;-1.296;2023-03-11T06:50:25;99914.29;;;0.38;81.31
73624;BME280;61921;53.226;-1.296;2023-03-11T06:52:50;99914.54;;;0.50;81.59
73624;BME280;61921;53.226;-1.296;2023-03-11T06:55:16;99916.17;;;0.54;81.56
73624;BME280;61921;53.226;-1.296;2023-03-11T06:57:41;99921.74;;;0.59;81.58
73624;BME280;61921;53.226;-1.296;2023-03-11T07:00:08;99923.96;;;0.61;81.46
73624;BME280;61921;53.226;-1.296;2023-03-11T07:02:32;99918.62;;;0.64;80.64
73624;BME280;61921;53.226;-1.296;2023-03-11T07:04:58;99919.22;;;0.65;79.64
73624;BME280;61921;53.226;-1.296;2023-03-11T07:07:23;99921.06;;;0.71;79.34
73624;BME280;61921;53.226;-1.296;2023-03-11T07:09:48;99922.65;;;0.80;78.75
73624;BME280;61921;53.226;-1.296;2023-03-11T07:12:13;99919.90;;;0.89;78.66
73624;BME280;61921;53.226;-1.296;2023-03-11T07:14:39;99920.98;;;0.89;76.80
73624;BME280;61921;53.226;-1.296;2023-03-11T07:17:04;99921.69;;;1.01;77.55
73624;BME280;61921;53.226;-1.296;2023-03-11T07:19:30;99921.86;;;1.11;77.59
73624;BME280;61921;53.226;-1.296;2023-03-11T07:21:56;99920.35;;;1.23;77.81
73624;BME280;61921;53.226;-1.296;2023-03-11T07:24:21;99921.58;;;1.34;77.37
73624;BME280;61921;53.226;-1.296;2023-03-11T07:26:47;99917.20;;;1.42;77.21
73624;BME280;61921;53.226;-1.296;2023-03-11T07:29:12;99917.78;;;1.51;77.10
73624;BME280;61921;53.226;-1.296;2023-03-11T07:31:39;99913.66;;;1.59;77.70
73624;BME280;61921;53.226;-1.296;2023-03-11T07:34:06;99914.39;;;1.69;77.74
73624;BME280;61921;53.226;-1.296;2023-03-11T07:36:30;99916.64;;;1.78;77.39
73624;BME280;61921;53.226;-1.296;2023-03-11T07:38:58;99919.66;;;1.84;77.46
73624;BME280;61921;53.226;-1.296;2023-03-11T07:41:21;99918.30;;;1.87;77.53
73624;BME280;61921;53.226;-1.296;2023-03-11T07:43:46;99919.85;;;1.93;77.81
73624;BME280;61921;53.226;-1.296;2023-03-11T07:46:13;99922.36;;;2.02;77.79
73624;BME280;61921;53.226;-1.296;2023-03-11T07:48:38;99927.12;;;2.03;77.69
73624;BME280;61921;53.226;-1.296;2023-03-11T07:51:04;99927.49;;;2.07;77.63
73624;BME280;61921;53.226;-1.296;2023-03-11T07:53:29;99931.00;;;2.09;77.69
73624;BME280;61921;53.226;-1.296;2023-03-11T07:55:56;99931.31;;;2.13;77.58
73624;BME280;61921;53.226;-1.296;2023-03-11T07:58:19;99930.55;;;2.13;77.78
73624;BME280;61921;53.226;-1.296;2023-03-11T08:00:44;99927.90;;;2.14;78.21
73624;BME280;61921;53.226;-1.296;2023-03-11T08:03:10;99929.40;;;2.18;78.64
73624;BME280;61921;53.226;-1.296;2023-03-11T08:05:35;99931.53;;;2.26;78.87
73624;BME280;61921;53.226;-1.296;2023-03-11T08:08:02;99934.21;;;2.32;78.52
73624;BME280;61921;53.226;-1.296;2023-03-11T08:10:26;99938.75;;;2.35;78.07
73624;BME280;61921;53.226;-1.296;2023-03-11T08:12:52;99945.28;;;2.39;77.79
73624;BME280;61921;53.226;-1.296;2023-03-11T08:15:17;99949.24;;;2.11;78.19
73624;BME280;61921;53.226;-1.296;2023-03-11T08:17:43;99950.40;;;2.19;77.96
73624;BME280;61921;53.226;-1.296;2023-03-11T08:20:10;99949.26;;;2.19;78.07
73624;BME280;61921;53.226;-1.296;2023-03-11T08:22:34;99946.96;;;2.12;77.93
73624;BME280;61921;53.226;-1.296;2023-03-11T08:24:59;99950.53;;;2.14;78.71
73624;BME280;61921;53.226;-1.296;2023-03-11T08:27:27;99962.31;;;2.02;78.50
73624;BME280;61921;53.226;-1.296;2023-03-11T08:29:50;99961.75;;;2.08;78.52
73624;BME280;61921;53.226;-1.296;2023-03-11T08:32:15;99952.31;;;2.15;77.98
73624;BME280;61921;53.226;-1.296;2023-03-11T08:34:40;99951.80;;;2.22;75.32
73624;BME280;61921;53.226;-1.296;2023-03-11T08:37:05;99951.42;;;2.35;75.49
73624;BME280;61921;53.226;-1.296;2023-03-11T08:39:31;99944.32;;;2.49;76.28
73624;BME280;61921;53.226;-1.296;2023-03-11T08:41:57;99940.95;;;2.70;74.54
73624;BME280;61921;53.226;-1.296;2023-03-11T08:44:22;99936.57;;;2.87;73.12
73624;BME280;61921;53.226;-1.296;2023-03-11T08:46:47;99927.85;;;3.09;68.94
73624;BME280;61921;53.226;-1.296;2023-03-11T08:49:13;99927.34;;;3.38;67.92
73624;BME280;61921;53.226;-1.296;2023-03-11T08:51:38;99928.14;;;3.69;64.02
73624;BME280;61921;53.226;-1.296;2023-03-11T08:54:04;99929.46;;;3.98;63.82
73624;BME280;61921;53.226;-1.296;2023-03-11T08:56:29;99931.44;;;4.10;62.97
73624;BME280;61921;53.226;-1.296;2023-03-11T08:58:56;99934.70;;;4.46;62.24
73624;BME280;61921;53.226;-1.296;2023-03-11T09:01:21;99943.72;;;4.93;60.87
73624;BME280;61921;53.226;-1.296;2023-03-11T09:03:46;99937.81;;;5.50;60.14
73624;BME280;61921;53.226;-1.296;2023-03-11T09:06:13;99930.63;;;5.50;57.88
73624;BME280;61921;53.226;-1.296;2023-03-11T09:08:36;99926.32;;;5.75;58.99
73624;BME280;61921;53.226;-1.296;2023-03-11T09:11:01;99928.32;;;5.70;57.52
73624;BME280;61921;53.226;-1.296;2023-03-11T09:13:27;99936.15;;;5.70;57.16
73624;BME280;61921;53.226;-1.296;2023-03-11T09:15:52;99937.11;;;5.75;56.99
73624;BME280;61921;53.226;-1.296;2023-03-11T09:18:18;99936.89;;;5.80;58.27
73624;BME280;61921;53.226;-1.296;2023-03-11T09:20:43;99933.34;;;5.66;59.00
73624;BME280;61921;53.226;-1.296;2023-03-11T09:23:11;99936.83;;;5.66;58.96
73624;BME280;61921;53.226;-1.296;2023-03-11T09:25:34;99938.43;;;5.52;59.44
73624;BME280;61921;53.226;-1.296;2023-03-11T09:27:59;99934.54;;;5.57;58.65
73624;BME280;61921;53.226;-1.296;2023-03-11T09:30:24;99930.18;;;5.44;59.68
73624;BME280;61921;53.226;-1.296;2023-03-11T09:32:50;99926.60;;;5.53;59.56
73624;BME280;61921;53.226;-1.296;2023-03-11T09:35:15;99933.17;;;5.60;58.64
73624;BME280;61921;53.226;-1.296;2023-03-11T09:37:40;99935.99;;;5.94;60.40
73624;BME280;61921;53.226;-1.296;2023-03-11T09:40:09;99939.28;;;6.15;60.19
73624;BME280;61921;53.226;-1.296;2023-03-11T09:42:36;99941.26;;;6.17;58.93
73624;BME280;61921;53.226;-1.296;2023-03-11T09:45:01;99950.03;;;6.34;57.71
73624;BME280;61921;53.226;-1.296;2023-03-11T09:47:35;99953.69;;;6.47;56.06
73624;BME280;61921;53.226;-1.296;2023-03-11T09:50:00;99954.61;;;6.58;55.85
73624;BME280;61921;53.226;-1.296;2023-03-11T09:52:15;99952.33;;;6.52;56.71
73624;BME280;61921;53.226;-1.296;2023-03-11T09:54:41;99950.41;;;6.39;56.04
73624;BME280;61921;53.226;-1.296;2023-03-11T09:57:05;99949.52;;;6.10;55.27
73624;BME280;61921;53.226;-1.296;2023-03-11T09:59:31;99945.32;;;6.45;56.21
73624;BME280;61921;53.226;-1.296;2023-03-11T10:01:56;99943.10;;;6.66;55.44
73624;BME280;61921;53.226;-1.296;2023-03-11T10:04:24;99946.25;;;6.71;54.91
73624;BME280;61921;53.226;-1.296;2023-03-11T10:06:47;99947.04;;;6.62;54.47
73624;BME280;61921;53.226;-1.296;2023-03-11T10:09:25;99941.86;;;6.65;55.54
73624;BME280;61921;53.226;-1.296;2023-03-11T10:11:49;99938.36;;;6.75;54.63
73624;BME280;61921;53.226;-1.296;2023-03-11T10:14:12;99934.54;;;6.68;54.52
73624;BME280;61921;53.226;-1.296;2023-03-11T10:16:33;99930.30;;;6.80;54.00
73624;BME280;61921;53.226;-1.296;2023-03-11T10:19:00;99929.87;;;7.10;54.72
73624;BME280;61921;53.226;-1.296;2023-03-11T10:21:30;99926.24;;;7.23;53.37
73624;BME280;61921;53.226;-1.296;2023-03-11T10:23:58;99922.29;;;7.39;55.60
73624;BME280;61921;53.226;-1.296;2023-03-11T10:26:13;99924.12;;;7.35;53.87
73624;BME280;61921;53.226;-1.296;2023-03-11T10:28:41;99926.07;;;7.07;53.18
73624;BME280;61921;53.226;-1.296;2023-03-11T10:31:06;99925.07;;;7.28;53.64
73624;BME280;61921;53.226;-1.296;2023-03-11T10:33:32;99926.75;;;7.20;54.55
73624;BME280;61921;53.226;-1.296;2023-03-11T10:35:53;99921.90;;;7.26;54.83
73624;BME280;61921;53.226;-1.296;2023-03-11T10:38:21;99921.42;;;7.41;54.33
73624;BME280;61921;53.226;-1.296;2023-03-11T10:40:44;99922.29;;;7.50;52.77
73624;BME280;61921;53.226;-1.296;2023-03-11T10:43:12;99922.62;;;7.52;54.18
73624;BME280;61921;53.226;-1.296;2023-03-11T10:45:39;99926.96;;;7.57;52.21
73624;BME280;61921;53.226;-1.296;2023-03-11T10:47:59;99928.01;;;7.82;50.90
73624;BME280;61921;53.226;-1.296;2023-03-11T10:50:24;99930.43;;;7.98;51.01
73624;BME280;61921;53.226;-1.296;2023-03-11T10:53:04;99931.64;;;7.99;51.00
73624;BME280;61921;53.226;-1.296;2023-03-11T10:55:16;99925.52;;;7.75;50.26
73624;BME280;61921;53.226;-1.296;2023-03-11T10:57:41;99924.20;;;7.95;51.01
73624;BME280;61921;53.226;-1.296;2023-03-11T11:00:08;99926.40;;;7.99;51.75
73624;BME280;61921;53.226;-1.296;2023-03-11T11:02:32;99923.44;;;8.25;51.18
73624;BME280;61921;53.226;-1.296;2023-03-11T11:05:07;99921.32;;;8.32;51.48
73624;BME280;61921;53.226;-1.296;2023-03-11T11:07:29;99917.99;;;8.09;51.24
73624;BME280;61921;53.226;-1.296;2023-03-11T11:12:15;99921.62;;;8.45;50.26
73624;BME280;61921;53.226;-1.296;2023-03-11T11:14:43;99926.77;;;8.52;50.91
73624;BME280;61921;53.226;-1.296;2023-03-11T11:17:04;99920.56;;;8.18;50.69
73624;BME280;61921;53.226;-1.296;2023-03-11T11:19:30;99924.76;;;8.23;50.09
73624;BME280;61921;53.226;-1.296;2023-03-11T11:22:02;99919.90;;;8.17;49.52
73624;BME280;61921;53.226;-1.296;2023-03-11T11:24:24;99917.99;;;8.43;49.66
73624;BME280;61921;53.226;-1.296;2023-03-11T11:29:14;99915.80;;;8.53;50.01
73624;BME280;61921;53.226;-1.296;2023-03-11T11:31:39;99907.57;;;8.57;50.42
73624;BME280;61921;53.226;-1.296;2023-03-11T11:34:03;99899.24;;;9.20;48.79
73624;BME280;61921;53.226;-1.296;2023-03-11T11:36:30;99895.17;;;9.50;47.55
73624;BME280;61921;53.226;-1.296;2023-03-11T11:38:53;99887.55;;;9.49;48.64
73624;BME280;61921;53.226;-1.296;2023-03-11T11:41:20;99886.78;;;9.59;48.04
73624;BME280;61921;53.226;-1.296;2023-03-11T11:43:48;99886.94;;;9.51;48.36
73624;BME280;61921;53.226;-1.296;2023-03-11T11:46:17;99887.95;;;9.30;47.62
73624;BME280;61921;53.226;-1.296;2023-03-11T11:48:42;99885.29;;;9.18;47.48
73624;BME280;61921;53.226;-1.296;2023-03-11T11:51:01;99885.30;;;9.04;47.73
73624;BME280;61921;53.226;-1.296;2023-03-11T11:53:30;99890.40;;;8.90;46.65
73624;BME280;61921;53.226;-1.296;2023-03-11T11:55:51;99886.89;;;8.84;45.88
73624;BME280;61921;53.226;-1.296;2023-03-11T11:58:16;99883.31;;;8.91;46.34
73624;BME280;61921;53.226;-1.296;2023-03-11T12:00:48;99880.14;;;8.84;47.05
73624;BME280;61921;53.226;-1.296;2023-03-11T12:03:22;99885.40;;;9.39;47.37
73624;BME280;61921;53.226;-1.296;2023-03-11T12:05:37;99883.64;;;9.56;46.19
73624;BME280;61921;53.226;-1.296;2023-03-11T12:08:07;99884.58;;;9.73;46.92
73624;BME280;61921;53.226;-1.296;2023-03-11T12:10:27;99878.75;;;9.50;45.01
73624;BME280;61921;53.226;-1.296;2023-03-11T12:15:17;99876.99;;;9.86;46.31
73624;BME280;61921;53.226;-1.296;2023-03-11T12:17:43;99876.90;;;10.22;45.38
73624;BME280;61921;53.226;-1.296;2023-03-11T12:20:10;99875.45;;;10.25;44.98
73624;BME280;61921;53.226;-1.296;2023-03-11T12:22:45;99873.85;;;9.94;43.50
73624;BME280;61921;53.226;-1.296;2023-03-11T12:27:25;99865.56;;;9.88;45.52
73624;BME280;61921;53.226;-1.296;2023-03-11T12:29:51;99859.69;;;9.82;44.88
73624;BME280;61921;53.226;-1.296;2023-03-11T12:32:22;99860.55;;;9.81;46.29
73624;BME280;61921;53.226;-1.296;2023-03-11T12:34:39;99857.74;;;9.88;45.28
73624;BME280;61921;53.226;-1.296;2023-03-11T12:37:12;99857.90;;;9.80;45.50
73624;BME280;61921;53.226;-1.296;2023-03-11T12:39:32;99858.43;;;9.65;44.86
73624;BME280;61921;53.226;-1.296;2023-03-11T12:42:14;99865.17;;;9.61;44.25
73624;BME280;61921;53.226;-1.296;2023-03-11T12:44:24;99866.48;;;9.75;45.76
73624;BME280;61921;53.226;-1.296;2023-03-11T12:46:59;99866.14;;;9.83;45.41
73624;BME280;61921;53.226;-1.296;2023-03-11T12:49:13;99861.01;;;9.91;45.68
73624;BME280;61921;53.226;-1.296;2023-03-11T12:51:38;99851.80;;;9.94;45.47
73624;BME280;61921;53.226;-1.296;2023-03-11T12:56:33;99842.57;;;9.92;46.86